Fountain Green, UT

2:46 AM MDT on October 20, 2014 (GMT -0600)
Carbon County | Change Station
CLOSE
Current Station
Airport
Location: Price,
Elevation: 5955 ft
Nearby Weather Stations

Elev 5955 ft 39.61 °N, 110.75 °W | Updated 53 minutes ago

Clear
Clear
48 °F
Feels Like 48 °F
N
5
Wind Variable Wind from NE

Today
High -- | Low -- °F
--% Chance of Precip.
Yesterday
High -- | Low -- °F
Precip. -- in
7:42 AM 6:40 PM
Waning Crescent, 12% visible
Pressure 30.01 in
Visibility 10.0 miles
Clouds Clear
Dew Point 30 °F
Humidity 50%
Rainfall 0.00 in
Snow Depth Not available.
UV 0 out of 12
Pollen 1.80 out of 12
Air Quality Not available.
Flu Activity Sporadic
METAR KPUC 200753Z AUTO 05004KT 10SM CLR 09/M01 A3014 RMK AO2 SLP163 T00891011 TSNO

More Conditions Fewer Conditions

Pressure 30.01 in
Visibility 10.0 miles
Clouds Clear
Dew Point 30 °F
Humidity 50%
Rainfall 0.00 in
Snow Depth Not available.
UV 0 out of 12
Pollen 1.80 out of 12
Air Quality Not available.
Flu Activity Sporadic
METAR KPUC 200753Z AUTO 05004KT 10SM CLR 09/M01 A3014 RMK AO2 SLP163 T00891011 TSNO

More Conditions Fewer Conditions

10-Day Weather Forecast

Almanac

Astronomy

Oct. 20, 2014 Rise Set
Actual Time 7:42 AM MDT 6:40 PM MDT
Civil Twilight 7:14 AM MDT 7:07 PM MDT
Nautical Twilight 6:43 AM MDT 7:38 PM MDT
Astronomical Twilight 6:12 AM MDT 8:09 PM MDT
Moon 4:34 AM MDT 5:04 PM MDT
Length of Visible Light 11h 52m
Length of Day
10h 58m
Waning Crescent, 12% of the Moon is Illuminated
Today
Waning Crescent
Oct 23
New
Oct 30
First Quarter
Nov 6
Full
Nov 14
Last Quarter

Today's Extremes

State Highs State Lows

Community

WunderPhotos

Upload Photos

1,763,316 photos uploaded!

Nearby

Snow Depth

Station Depth Elevation
Seeley Creek 0 in 10000 ft
Mammoth-Cottonwood 0 in 8800 ft
Red Pine Ridge 0 in 9200 ft
Payson R.S. 0 in 8050 ft
Clear Creek #1 0 in 9200 ft

Earthquake Activity

City Distance Mag. Time & Date
No recent earthquake activity has been reported nearby.
Minimum magnitude displayed is 2.5.

Coastal Water Temperatures

Place Temperature
No Stations Reporting

Nearby Weather Stations